sensor_id;sensor_type;location;lat;lon;timestamp;temperature;humidity
37530;DHT22;23374;52.758;6.872;2022-07-23T00:01:26;17.10;99.90
37530;DHT22;23374;52.758;6.872;2022-07-23T00:03:48;17.10;99.90
37530;DHT22;23374;52.758;6.872;2022-07-23T00:06:08;17.10;99.90
37530;DHT22;23374;52.758;6.872;2022-07-23T00:08:29;17.10;99.90
37530;DHT22;23374;52.758;6.872;2022-07-23T00:10:49;17.00;99.90
37530;DHT22;23374;52.758;6.872;2022-07-23T00:13:10;17.00;99.90
37530;DHT22;23374;52.758;6.872;2022-07-23T00:15:30;17.00;99.90
37530;DHT22;23374;52.758;6.872;2022-07-23T00:17:51;17.00;99.90
37530;DHT22;23374;52.758;6.872;2022-07-23T00:20:11;16.90;99.90
37530;DHT22;23374;52.758;6.872;2022-07-23T00:22:32;16.90;99.90
37530;DHT22;23374;52.758;6.872;2022-07-23T00:24:52;16.90;99.90
37530;DHT22;23374;52.758;6.872;2022-07-23T00:27:12;16.80;99.90
37530;DHT22;23374;52.758;6.872;2022-07-23T00:29:32;16.80;99.90
37530;DHT22;23374;52.758;6.872;2022-07-23T00:31:53;16.70;99.90
37530;DHT22;23374;52.758;6.872;2022-07-23T00:34:13;16.70;99.90
37530;DHT22;23374;52.758;6.872;2022-07-23T00:36:33;16.60;99.90
37530;DHT22;23374;52.758;6.872;2022-07-23T00:38:53;16.60;99.90
37530;DHT22;23374;52.758;6.872;2022-07-23T00:41:13;16.60;99.90
37530;DHT22;23374;52.758;6.872;2022-07-23T00:43:33;16.50;99.90
37530;DHT22;23374;52.758;6.872;2022-07-23T00:45:54;16.50;99.90
37530;DHT22;23374;52.758;6.872;2022-07-23T00:48:14;16.40;99.90
37530;DHT22;23374;52.758;6.872;2022-07-23T00:50:34;16.40;99.90
37530;DHT22;23374;52.758;6.872;2022-07-23T00:52:55;16.30;99.90
37530;DHT22;23374;52.758;6.872;2022-07-23T00:55:16;16.30;99.90
37530;DHT22;23374;52.758;6.872;2022-07-23T00:57:37;16.30;99.90
37530;DHT22;23374;52.758;6.872;2022-07-23T00:59:57;16.30;99.90
37530;DHT22;23374;52.758;6.872;2022-07-23T01:02:18;16.20;99.90
37530;DHT22;23374;52.758;6.872;2022-07-23T01:04:39;16.20;1.00
37530;DHT22;23374;52.758;6.872;2022-07-23T01:07:00;16.20;1.00
37530;DHT22;23374;52.758;6.872;2022-07-23T01:09:20;16.20;1.00
37530;DHT22;23374;52.758;6.872;2022-07-23T01:11:41;16.20;1.00
37530;DHT22;23374;52.758;6.872;2022-07-23T01:14:16;16.20;99.90
37530;DHT22;23374;52.758;6.872;2022-07-23T01:16:37;16.20;1.00
37530;DHT22;23374;52.758;6.872;2022-07-23T01:18:57;16.20;1.00
37530;DHT22;23374;52.758;6.872;2022-07-23T01:21:18;16.20;1.00
37530;DHT22;23374;52.758;6.872;2022-07-23T01:23:39;16.20;1.00
37530;DHT22;23374;52.758;6.872;2022-07-23T01:25:59;16.20;1.00
37530;DHT22;23374;52.758;6.872;2022-07-23T01:28:20;16.20;1.00
37530;DHT22;23374;52.758;6.872;2022-07-23T01:30:40;16.30;1.00
37530;DHT22;23374;52.758;6.872;2022-07-23T01:33:00;16.30;1.00
37530;DHT22;23374;52.758;6.872;2022-07-23T01:35:20;16.30;1.00
37530;DHT22;23374;52.758;6.872;2022-07-23T01:37:40;16.30;1.00
37530;DHT22;23374;52.758;6.872;2022-07-23T01:40:00;16.30;1.00
37530;DHT22;23374;52.758;6.872;2022-07-23T01:42:20;16.30;1.00
37530;DHT22;23374;52.758;6.872;2022-07-23T01:44:41;16.30;1.00
37530;DHT22;23374;52.758;6.872;2022-07-23T01:47:01;16.30;1.00
37530;DHT22;23374;52.758;6.872;2022-07-23T01:49:22;16.30;1.00
37530;DHT22;23374;52.758;6.872;2022-07-23T01:51:42;16.30;1.00
37530;DHT22;23374;52.758;6.872;2022-07-23T01:54:19;16.30;1.00
37530;DHT22;23374;52.758;6.872;2022-07-23T01:56:39;16.30;1.00
37530;DHT22;23374;52.758;6.872;2022-07-23T01:58:59;16.30;1.00
37530;DHT22;23374;52.758;6.872;2022-07-23T02:01:19;16.30;1.00
37530;DHT22;23374;52.758;6.872;2022-07-23T02:03:40;16.30;1.00
37530;DHT22;23374;52.758;6.872;2022-07-23T02:06:00;16.30;1.00
37530;DHT22;23374;52.758;6.872;2022-07-23T02:08:20;16.30;1.00
37530;DHT22;23374;52.758;6.872;2022-07-23T02:10:40;16.30;17.60
37530;DHT22;23374;52.758;6.872;2022-07-23T02:13:01;16.30;1.00
37530;DHT22;23374;52.758;6.872;2022-07-23T02:15:21;16.30;1.00
37530;DHT22;23374;52.758;6.872;2022-07-23T02:17:41;16.30;1.00
37530;DHT22;23374;52.758;6.872;2022-07-23T02:20:02;16.30;1.00
37530;DHT22;23374;52.758;6.872;2022-07-23T02:22:23;16.20;1.00
37530;DHT22;23374;52.758;6.872;2022-07-23T02:24:43;16.20;1.00
37530;DHT22;23374;52.758;6.872;2022-07-23T02:27:03;16.10;1.00
37530;DHT22;23374;52.758;6.872;2022-07-23T02:29:23;16.10;1.00
37530;DHT22;23374;52.758;6.872;2022-07-23T02:31:43;16.00;1.00
37530;DHT22;23374;52.758;6.872;2022-07-23T02:34:04;16.00;1.00
37530;DHT22;23374;52.758;6.872;2022-07-23T02:36:26;16.00;1.00
37530;DHT22;23374;52.758;6.872;2022-07-23T02:38:46;15.90;1.00
37530;DHT22;23374;52.758;6.872;2022-07-23T02:41:07;15.90;1.00
37530;DHT22;23374;52.758;6.872;2022-07-23T02:43:27;15.80;1.00
37530;DHT22;23374;52.758;6.872;2022-07-23T02:45:47;15.80;1.00
37530;DHT22;23374;52.758;6.872;2022-07-23T02:48:08;15.70;1.00
37530;DHT22;23374;52.758;6.872;2022-07-23T02:50:28;15.70;1.00
37530;DHT22;23374;52.758;6.872;2022-07-23T02:52:48;15.60;1.00
37530;DHT22;23374;52.758;6.872;2022-07-23T02:55:09;15.60;1.00
37530;DHT22;23374;52.758;6.872;2022-07-23T02:57:30;15.50;1.00
37530;DHT22;23374;52.758;6.872;2022-07-23T02:59:50;15.50;1.00
37530;DHT22;23374;52.758;6.872;2022-07-23T03:02:11;15.50;1.00
37530;DHT22;23374;52.758;6.872;2022-07-23T03:04:31;15.50;1.00
37530;DHT22;23374;52.758;6.872;2022-07-23T03:06:51;15.50;1.00
37530;DHT22;23374;52.758;6.872;2022-07-23T03:09:12;15.50;1.00
37530;DHT22;23374;52.758;6.872;2022-07-23T03:11:32;15.40;1.00
37530;DHT22;23374;52.758;6.872;2022-07-23T03:13:53;15.40;1.00
37530;DHT22;23374;52.758;6.872;2022-07-23T03:16:13;15.40;1.00
37530;DHT22;23374;52.758;6.872;2022-07-23T03:18:34;15.30;1.00
37530;DHT22;23374;52.758;6.872;2022-07-23T03:20:54;15.30;1.00
37530;DHT22;23374;52.758;6.872;2022-07-23T03:23:16;15.30;1.00
37530;DHT22;23374;52.758;6.872;2022-07-23T03:25:36;15.30;1.00
37530;DHT22;23374;52.758;6.872;2022-07-23T03:27:57;15.20;1.00
37530;DHT22;23374;52.758;6.872;2022-07-23T03:30:17;15.20;99.90
37530;DHT22;23374;52.758;6.872;2022-07-23T03:32:38;15.20;99.90
37530;DHT22;23374;52.758;6.872;2022-07-23T03:34:58;15.10;99.90
37530;DHT22;23374;52.758;6.872;2022-07-23T03:37:19;15.10;1.00
37530;DHT22;23374;52.758;6.872;2022-07-23T03:39:40;15.10;1.00
37530;DHT22;23374;52.758;6.872;2022-07-23T03:42:00;15.10;1.00
37530;DHT22;23374;52.758;6.872;2022-07-23T03:44:20;15.00;99.90
37530;DHT22;23374;52.758;6.872;2022-07-23T03:46:40;15.00;99.90
37530;DHT22;23374;52.758;6.872;2022-07-23T03:49:00;14.90;99.90
37530;DHT22;23374;52.758;6.872;2022-07-23T03:51:20;14.90;99.90
37530;DHT22;23374;52.758;6.872;2022-07-23T03:53:41;14.80;1.00
37530;DHT22;23374;52.758;6.872;2022-07-23T03:56:01;14.80;1.00
37530;DHT22;23374;52.758;6.872;2022-07-23T03:58:21;14.80;1.00
37530;DHT22;23374;52.758;6.872;2022-07-23T04:00:41;14.70;1.00
37530;DHT22;23374;52.758;6.872;2022-07-23T04:03:01;14.70;1.00
37530;DHT22;23374;52.758;6.872;2022-07-23T04:05:21;14.70;99.90
37530;DHT22;23374;52.758;6.872;2022-07-23T04:07:41;14.70;1.00
37530;DHT22;23374;52.758;6.872;2022-07-23T04:10:02;14.70;1.00
37530;DHT22;23374;52.758;6.872;2022-07-23T04:12:23;14.70;1.00
37530;DHT22;23374;52.758;6.872;2022-07-23T04:14:44;14.70;1.00
37530;DHT22;23374;52.758;6.872;2022-07-23T04:17:04;14.80;99.90
37530;DHT22;23374;52.758;6.872;2022-07-23T04:19:25;14.70;99.90
37530;DHT22;23374;52.758;6.872;2022-07-23T04:21:45;14.70;99.90
37530;DHT22;23374;52.758;6.872;2022-07-23T04:24:05;14.70;99.90
37530;DHT22;23374;52.758;6.872;2022-07-23T04:26:25;14.70;99.90
37530;DHT22;23374;52.758;6.872;2022-07-23T04:28:45;14.70;99.90
37530;DHT22;23374;52.758;6.872;2022-07-23T04:31:05;14.70;99.90
37530;DHT22;23374;52.758;6.872;2022-07-23T04:33:25;14.70;99.90
37530;DHT22;23374;52.758;6.872;2022-07-23T04:35:46;14.80;99.90
37530;DHT22;23374;52.758;6.872;2022-07-23T04:38:06;14.80;99.90
37530;DHT22;23374;52.758;6.872;2022-07-23T04:40:27;14.80;99.90
37530;DHT22;23374;52.758;6.872;2022-07-23T04:42:47;14.80;99.90
37530;DHT22;23374;52.758;6.872;2022-07-23T04:45:08;14.80;99.90
37530;DHT22;23374;52.758;6.872;2022-07-23T04:47:29;14.80;99.90
37530;DHT22;23374;52.758;6.872;2022-07-23T04:49:50;14.80;1.00
37530;DHT22;23374;52.758;6.872;2022-07-23T04:52:10;14.80;1.00
37530;DHT22;23374;52.758;6.872;2022-07-23T04:54:30;14.90;1.00
37530;DHT22;23374;52.758;6.872;2022-07-23T04:56:50;14.90;1.00
37530;DHT22;23374;52.758;6.872;2022-07-23T04:59:10;14.90;18.90
37530;DHT22;23374;52.758;6.872;2022-07-23T05:01:35;15.00;99.90
37530;DHT22;23374;52.758;6.872;2022-07-23T05:03:55;15.10;99.90
37530;DHT22;23374;52.758;6.872;2022-07-23T05:06:16;15.40;1.00
37530;DHT22;23374;52.758;6.872;2022-07-23T05:08:36;15.70;99.90
37530;DHT22;23374;52.758;6.872;2022-07-23T05:10:56;16.00;1.00
37530;DHT22;23374;52.758;6.872;2022-07-23T05:13:17;16.50;1.00
37530;DHT22;23374;52.758;6.872;2022-07-23T05:15:38;16.90;99.90
37530;DHT22;23374;52.758;6.872;2022-07-23T05:17:58;17.20;1.00
37530;DHT22;23374;52.758;6.872;2022-07-23T05:20:18;17.60;1.00
37530;DHT22;23374;52.758;6.872;2022-07-23T05:22:39;17.90;99.90
37530;DHT22;23374;52.758;6.872;2022-07-23T05:25:00;18.20;99.90
37530;DHT22;23374;52.758;6.872;2022-07-23T05:27:20;18.50;10.00
37530;DHT22;23374;52.758;6.872;2022-07-23T05:29:40;18.80;1.00
37530;DHT22;23374;52.758;6.872;2022-07-23T05:32:00;19.00;1.00
37530;DHT22;23374;52.758;6.872;2022-07-23T05:34:21;19.30;1.00
37530;DHT22;23374;52.758;6.872;2022-07-23T05:36:44;19.50;1.00
37530;DHT22;23374;52.758;6.872;2022-07-23T05:39:04;19.70;1.00
37530;DHT22;23374;52.758;6.872;2022-07-23T05:41:25;19.90;99.90
37530;DHT22;23374;52.758;6.872;2022-07-23T05:43:45;20.00;99.90
37530;DHT22;23374;52.758;6.872;2022-07-23T05:46:05;20.00;99.90
37530;DHT22;23374;52.758;6.872;2022-07-23T05:48:25;20.10;99.90
37530;DHT22;23374;52.758;6.872;2022-07-23T05:50:47;20.20;99.90
37530;DHT22;23374;52.758;6.872;2022-07-23T05:53:07;20.40;99.90
37530;DHT22;23374;52.758;6.872;2022-07-23T05:55:27;20.40;99.90
37530;DHT22;23374;52.758;6.872;2022-07-23T05:57:49;20.50;99.90
37530;DHT22;23374;52.758;6.872;2022-07-23T06:00:10;20.50;1.00
37530;DHT22;23374;52.758;6.872;2022-07-23T06:02:31;20.40;1.00
37530;DHT22;23374;52.758;6.872;2022-07-23T06:04:51;20.30;4.60
37530;DHT22;23374;52.758;6.872;2022-07-23T06:07:11;20.30;92.30
37530;DHT22;23374;52.758;6.872;2022-07-23T06:09:32;20.30;77.60
37530;DHT22;23374;52.758;6.872;2022-07-23T06:11:52;20.40;88.10
37530;DHT22;23374;52.758;6.872;2022-07-23T06:14:12;20.30;17.30
37530;DHT22;23374;52.758;6.872;2022-07-23T06:16:32;20.30;58.50
37530;DHT22;23374;52.758;6.872;2022-07-23T06:18:52;20.30;96.10
37530;DHT22;23374;52.758;6.872;2022-07-23T06:21:12;20.30;99.90
37530;DHT22;23374;52.758;6.872;2022-07-23T06:23:32;20.10;1.90
37530;DHT22;23374;52.758;6.872;2022-07-23T06:25:52;19.80;48.80
37530;DHT22;23374;52.758;6.872;2022-07-23T06:28:13;19.50;53.90
37530;DHT22;23374;52.758;6.872;2022-07-23T06:30:33;19.20;21.50
37530;DHT22;23374;52.758;6.872;2022-07-23T06:32:53;18.80;8.00
37530;DHT22;23374;52.758;6.872;2022-07-23T06:35:13;18.60;99.90
37530;DHT22;23374;52.758;6.872;2022-07-23T06:37:34;18.40;99.90
37530;DHT22;23374;52.758;6.872;2022-07-23T06:39:54;18.20;99.90
37530;DHT22;23374;52.758;6.872;2022-07-23T06:42:14;18.10;99.90
37530;DHT22;23374;52.758;6.872;2022-07-23T06:44:35;18.00;99.90
37530;DHT22;23374;52.758;6.872;2022-07-23T06:46:55;18.00;99.90
37530;DHT22;23374;52.758;6.872;2022-07-23T06:49:15;17.90;99.90
37530;DHT22;23374;52.758;6.872;2022-07-23T06:51:36;17.90;99.90
37530;DHT22;23374;52.758;6.872;2022-07-23T06:53:56;17.80;99.90
37530;DHT22;23374;52.758;6.872;2022-07-23T06:56:16;17.80;99.90
37530;DHT22;23374;52.758;6.872;2022-07-23T06:58:37;17.80;99.90
37530;DHT22;23374;52.758;6.872;2022-07-23T07:00:57;17.80;99.90
37530;DHT22;23374;52.758;6.872;2022-07-23T07:03:18;17.80;99.90
37530;DHT22;23374;52.758;6.872;2022-07-23T07:05:38;17.80;99.90
37530;DHT22;23374;52.758;6.872;2022-07-23T07:08:00;17.90;99.90
37530;DHT22;23374;52.758;6.872;2022-07-23T07:10:21;17.90;99.90
37530;DHT22;23374;52.758;6.872;2022-07-23T07:12:41;17.90;99.90
37530;DHT22;23374;52.758;6.872;2022-07-23T07:15:02;17.90;99.90
37530;DHT22;23374;52.758;6.872;2022-07-23T07:17:22;17.90;99.90
37530;DHT22;23374;52.758;6.872;2022-07-23T07:19:43;17.90;99.90
37530;DHT22;23374;52.758;6.872;2022-07-23T07:22:03;17.90;99.90
37530;DHT22;23374;52.758;6.872;2022-07-23T07:24:23;17.90;99.90
37530;DHT22;23374;52.758;6.872;2022-07-23T07:26:44;17.90;99.90
37530;DHT22;23374;52.758;6.872;2022-07-23T07:29:04;18.00;99.90
37530;DHT22;23374;52.758;6.872;2022-07-23T07:31:25;18.10;99.90
37530;DHT22;23374;52.758;6.872;2022-07-23T07:33:46;18.10;91.30
37530;DHT22;23374;52.758;6.872;2022-07-23T07:36:06;18.10;99.90
37530;DHT22;23374;52.758;6.872;2022-07-23T07:38:27;18.20;99.90
37530;DHT22;23374;52.758;6.872;2022-07-23T07:40:47;18.20;99.90
37530;DHT22;23374;52.758;6.872;2022-07-23T07:43:07;18.30;73.00
37530;DHT22;23374;52.758;6.872;2022-07-23T07:45:28;18.30;66.40
37530;DHT22;23374;52.758;6.872;2022-07-23T07:47:48;18.30;35.80
37530;DHT22;23374;52.758;6.872;2022-07-23T07:50:09;18.30;1.00
37530;DHT22;23374;52.758;6.872;2022-07-23T07:52:29;18.30;1.00
37530;DHT22;23374;52.758;6.872;2022-07-23T07:54:49;18.40;9.70
37530;DHT22;23374;52.758;6.872;2022-07-23T07:57:10;18.50;10.00
37530;DHT22;23374;52.758;6.872;2022-07-23T07:59:30;18.60;1.00
37530;DHT22;23374;52.758;6.872;2022-07-23T08:01:50;18.60;31.60
37530;DHT22;23374;52.758;6.872;2022-07-23T08:04:11;18.70;1.00
37530;DHT22;23374;52.758;6.872;2022-07-23T08:06:31;18.70;1.00
37530;DHT22;23374;52.758;6.872;2022-07-23T08:08:51;18.70;1.00
37530;DHT22;23374;52.758;6.872;2022-07-23T08:11:11;18.80;1.00
37530;DHT22;23374;52.758;6.872;2022-07-23T08:13:31;19.00;13.70
37530;DHT22;23374;52.758;6.872;2022-07-23T08:15:51;19.10;1.00
37530;DHT22;23374;52.758;6.872;2022-07-23T08:18:13;19.10;1.00
37530;DHT22;23374;52.758;6.872;2022-07-23T08:20:33;19.00;1.00
37530;DHT22;23374;52.758;6.872;2022-07-23T08:23:00;18.90;1.00
37530;DHT22;23374;52.758;6.872;2022-07-23T08:25:26;18.90;1.00
37530;DHT22;23374;52.758;6.872;2022-07-23T08:27:47;18.80;1.00
37530;DHT22;23374;52.758;6.872;2022-07-23T08:30:08;18.80;1.00
37530;DHT22;23374;52.758;6.872;2022-07-23T08:32:29;18.80;1.00
37530;DHT22;23374;52.758;6.872;2022-07-23T08:34:49;18.90;1.00
37530;DHT22;23374;52.758;6.872;2022-07-23T08:37:09;19.00;1.00
37530;DHT22;23374;52.758;6.872;2022-07-23T08:39:29;19.20;1.00
37530;DHT22;23374;52.758;6.872;2022-07-23T08:41:50;19.30;1.00
37530;DHT22;23374;52.758;6.872;2022-07-23T08:44:11;19.40;1.00
37530;DHT22;23374;52.758;6.872;2022-07-23T08:46:32;19.50;1.00
37530;DHT22;23374;52.758;6.872;2022-07-23T08:48:54;19.60;1.00
37530;DHT22;23374;52.758;6.872;2022-07-23T08:51:15;19.60;1.00
37530;DHT22;23374;52.758;6.872;2022-07-23T08:53:36;19.80;1.00
37530;DHT22;23374;52.758;6.872;2022-07-23T08:56:00;19.90;1.00
37530;DHT22;23374;52.758;6.872;2022-07-23T08:58:24;19.90;1.00
37530;DHT22;23374;52.758;6.872;2022-07-23T09:00:45;20.00;1.00
37530;DHT22;23374;52.758;6.872;2022-07-23T09:03:06;20.10;1.00
37530;DHT22;23374;52.758;6.872;2022-07-23T09:05:27;20.20;1.00
37530;DHT22;23374;52.758;6.872;2022-07-23T09:08:17;20.20;1.00
37530;DHT22;23374;52.758;6.872;2022-07-23T09:11:15;20.00;99.90
37530;DHT22;23374;52.758;6.872;2022-07-23T09:13:47;20.00;99.90
37530;DHT22;23374;52.758;6.872;2022-07-23T09:16:28;20.10;1.00
37530;DHT22;23374;52.758;6.872;2022-07-23T09:19:02;20.20;1.00
37530;DHT22;23374;52.758;6.872;2022-07-23T09:21:29;20.40;99.90
37530;DHT22;23374;52.758;6.872;2022-07-23T09:24:02;20.50;99.90
37530;DHT22;23374;52.758;6.872;2022-07-23T09:26:38;20.60;99.90
37530;DHT22;23374;52.758;6.872;2022-07-23T09:29:23;20.70;99.90
37530;DHT22;23374;52.758;6.872;2022-07-23T09:31:54;20.70;99.90
37530;DHT22;23374;52.758;6.872;2022-07-23T09:34:21;20.70;99.90
37530;DHT22;23374;52.758;6.872;2022-07-23T09:36:42;20.80;99.90
37530;DHT22;23374;52.758;6.872;2022-07-23T09:39:04;20.80;99.90
37530;DHT22;23374;52.758;6.872;2022-07-23T09:41:24;20.80;99.90
37530;DHT22;23374;52.758;6.872;2022-07-23T09:43:45;20.90;99.90
37530;DHT22;23374;52.758;6.872;2022-07-23T09:46:24;21.00;1.00
37530;DHT22;23374;52.758;6.872;2022-07-23T09:48:46;21.10;99.90
37530;DHT22;23374;52.758;6.872;2022-07-23T09:51:06;21.20;99.90
37530;DHT22;23374;52.758;6.872;2022-07-23T09:53:27;21.20;99.90
37530;DHT22;23374;52.758;6.872;2022-07-23T09:55:47;21.30;99.90
37530;DHT22;23374;52.758;6.872;2022-07-23T09:58:07;21.30;99.90
37530;DHT22;23374;52.758;6.872;2022-07-23T10:00:33;21.30;99.90
37530;DHT22;23374;52.758;6.872;2022-07-23T10:02:55;21.30;99.90
37530;DHT22;23374;52.758;6.872;2022-07-23T10:05:16;21.30;99.90
37530;DHT22;23374;52.758;6.872;2022-07-23T10:07:39;21.20;99.90
37530;DHT22;23374;52.758;6.872;2022-07-23T10:10:01;21.10;99.90
37530;DHT22;23374;52.758;6.872;2022-07-23T10:12:22;21.00;99.90
37530;DHT22;23374;52.758;6.872;2022-07-23T10:15:30;21.00;99.90
37530;DHT22;23374;52.758;6.872;2022-07-23T10:17:50;21.00;99.90
37530;DHT22;23374;52.758;6.872;2022-07-23T10:20:11;21.00;99.90
37530;DHT22;23374;52.758;6.872;2022-07-23T10:22:40;21.00;99.90
37530;DHT22;23374;52.758;6.872;2022-07-23T10:25:22;21.00;99.90
37530;DHT22;23374;52.758;6.872;2022-07-23T10:32:53;21.10;99.90
37530;DHT22;23374;52.758;6.872;2022-07-23T10:37:24;21.40;14.70
37530;DHT22;23374;52.758;6.872;2022-07-23T10:39:47;21.40;27.20
37530;DHT22;23374;52.758;6.872;2022-07-23T10:42:16;21.50;99.90
37530;DHT22;23374;52.758;6.872;2022-07-23T10:44:43;21.60;95.20
37530;DHT22;23374;52.758;6.872;2022-07-23T10:47:04;21.50;99.90
37530;DHT22;23374;52.758;6.872;2022-07-23T10:50:25;21.50;99.90
37530;DHT22;23374;52.758;6.872;2022-07-23T10:53:16;21.50;93.20
37530;DHT22;23374;52.758;6.872;2022-07-23T10:55:44;21.70;99.90
37530;DHT22;23374;52.758;6.872;2022-07-23T10:58:05;21.80;77.90
37530;DHT22;23374;52.758;6.872;2022-07-23T11:00:28;21.90;99.90
37530;DHT22;23374;52.758;6.872;2022-07-23T11:02:52;22.00;94.30
37530;DHT22;23374;52.758;6.872;2022-07-23T11:05:16;22.00;99.90
37530;DHT22;23374;52.758;6.872;2022-07-23T11:08:14;22.10;99.90
37530;DHT22;23374;52.758;6.872;2022-07-23T11:43:16;22.20;23.40
37530;DHT22;23374;52.758;6.872;2022-07-23T11:45:39;22.60;63.50
37530;DHT22;23374;52.758;6.872;2022-07-23T11:48:01;22.70;99.90
37530;DHT22;23374;52.758;6.872;2022-07-23T11:50:24;22.80;99.90
37530;DHT22;23374;52.758;6.872;2022-07-23T11:52:45;22.80;64.40
37530;DHT22;23374;52.758;6.872;2022-07-23T11:55:11;22.90;77.80
37530;DHT22;23374;52.758;6.872;2022-07-23T11:57:35;22.90;1.00
37530;DHT22;23374;52.758;6.872;2022-07-23T12:00:09;22.90;3.30
37530;DHT22;23374;52.758;6.872;2022-07-23T12:02:31;22.80;1.00
37530;DHT22;23374;52.758;6.872;2022-07-23T12:04:53;22.70;17.40
37530;DHT22;23374;52.758;6.872;2022-07-23T12:09:07;22.60;99.90
37530;DHT22;23374;52.758;6.872;2022-07-23T12:11:27;22.50;5.50
37530;DHT22;23374;52.758;6.872;2022-07-23T12:13:57;22.50;99.90
37530;DHT22;23374;52.758;6.872;2022-07-23T12:16:18;22.50;1.00
37530;DHT22;23374;52.758;6.872;2022-07-23T12:18:39;22.70;42.40
37530;DHT22;23374;52.758;6.872;2022-07-23T12:21:04;22.80;99.90
37530;DHT22;23374;52.758;6.872;2022-07-23T12:23:26;22.90;66.60
37530;DHT22;23374;52.758;6.872;2022-07-23T12:25:48;22.90;1.00
37530;DHT22;23374;52.758;6.872;2022-07-23T12:28:18;23.00;43.70
37530;DHT22;23374;52.758;6.872;2022-07-23T12:31:00;23.20;99.90
37530;DHT22;23374;52.758;6.872;2022-07-23T12:33:30;23.30;1.00
37530;DHT22;23374;52.758;6.872;2022-07-23T12:35:53;23.40;1.00
37530;DHT22;23374;52.758;6.872;2022-07-23T12:38:19;23.40;1.00
37530;DHT22;23374;52.758;6.872;2022-07-23T12:40:54;23.40;1.00
37530;DHT22;23374;52.758;6.872;2022-07-23T12:46:04;23.40;1.00
37530;DHT22;23374;52.758;6.872;2022-07-23T12:48:39;23.40;1.00
37530;DHT22;23374;52.758;6.872;2022-07-23T12:51:05;23.40;1.00
37530;DHT22;23374;52.758;6.872;2022-07-23T12:53:42;23.40;1.00
37530;DHT22;23374;52.758;6.872;2022-07-23T12:56:10;23.40;1.00
37530;DHT22;23374;52.758;6.872;2022-07-23T12:58:52;23.50;3.40
37530;DHT22;23374;52.758;6.872;2022-07-23T13:01:28;23.50;28.30
37530;DHT22;23374;52.758;6.872;2022-07-23T13:04:15;23.50;1.00
37530;DHT22;23374;52.758;6.872;2022-07-23T13:06:47;23.50;1.00
37530;DHT22;23374;52.758;6.872;2022-07-23T13:09:13;23.60;29.10
37530;DHT22;23374;52.758;6.872;2022-07-23T13:11:34;23.80;1.00
37530;DHT22;23374;52.758;6.872;2022-07-23T13:13:55;23.80;43.20
37530;DHT22;23374;52.758;6.872;2022-07-23T13:16:15;23.70;1.00
37530;DHT22;23374;52.758;6.872;2022-07-23T13:18:36;23.60;99.90
37530;DHT22;23374;52.758;6.872;2022-07-23T13:20:57;23.40;39.50
37530;DHT22;23374;52.758;6.872;2022-07-23T13:23:17;23.40;1.00
37530;DHT22;23374;52.758;6.872;2022-07-23T13:25:38;23.40;1.00
37530;DHT22;23374;52.758;6.872;2022-07-23T13:27:59;23.50;17.10
37530;DHT22;23374;52.758;6.872;2022-07-23T13:30:19;23.50;1.00
37530;DHT22;23374;52.758;6.872;2022-07-23T13:32:39;23.50;1.00
37530;DHT22;23374;52.758;6.872;2022-07-23T13:34:59;23.50;87.70
37530;DHT22;23374;52.758;6.872;2022-07-23T13:37:20;23.50;95.30
37530;DHT22;23374;52.758;6.872;2022-07-23T13:39:41;23.60;97.90
37530;DHT22;23374;52.758;6.872;2022-07-23T13:42:01;23.60;1.00
37530;DHT22;23374;52.758;6.872;2022-07-23T13:44:21;23.60;18.20
37530;DHT22;23374;52.758;6.872;2022-07-23T13:46:42;23.60;1.00
37530;DHT22;23374;52.758;6.872;2022-07-23T13:49:02;23.70;1.00
37530;DHT22;23374;52.758;6.872;2022-07-23T13:51:22;23.80;1.00
37530;DHT22;23374;52.758;6.872;2022-07-23T13:53:49;23.90;51.10
37530;DHT22;23374;52.758;6.872;2022-07-23T13:56:10;23.90;99.90
37530;DHT22;23374;52.758;6.872;2022-07-23T13:58:30;24.00;99.90
37530;DHT22;23374;52.758;6.872;2022-07-23T14:00:52;24.10;1.00
37530;DHT22;23374;52.758;6.872;2022-07-23T14:03:13;24.10;1.00
37530;DHT22;23374;52.758;6.872;2022-07-23T14:05:33;24.10;18.40
37530;DHT22;23374;52.758;6.872;2022-07-23T14:07:54;24.20;1.00
37530;DHT22;23374;52.758;6.872;2022-07-23T14:10:21;24.40;1.00
37530;DHT22;23374;52.758;6.872;2022-07-23T14:12:41;24.60;1.00
37530;DHT22;23374;52.758;6.872;2022-07-23T14:15:03;24.70;1.00
37530;DHT22;23374;52.758;6.872;2022-07-23T14:17:24;24.80;1.00
37530;DHT22;23374;52.758;6.872;2022-07-23T14:19:45;24.90;1.00
37530;DHT22;23374;52.758;6.872;2022-07-23T14:22:05;25.00;99.90
37530;DHT22;23374;52.758;6.872;2022-07-23T14:24:25;25.00;1.00
37530;DHT22;23374;52.758;6.872;2022-07-23T14:26:46;25.00;1.00
37530;DHT22;23374;52.758;6.872;2022-07-23T14:29:06;24.90;1.00
37530;DHT22;23374;52.758;6.872;2022-07-23T14:31:27;24.80;1.00
37530;DHT22;23374;52.758;6.872;2022-07-23T14:33:48;24.70;1.00
37530;DHT22;23374;52.758;6.872;2022-07-23T14:36:08;24.50;1.00
37530;DHT22;23374;52.758;6.872;2022-07-23T14:38:29;24.40;1.00
37530;DHT22;23374;52.758;6.872;2022-07-23T14:40:50;24.40;51.40
37530;DHT22;23374;52.758;6.872;2022-07-23T14:43:10;24.30;1.00
37530;DHT22;23374;52.758;6.872;2022-07-23T14:45:31;24.20;1.00
37530;DHT22;23374;52.758;6.872;2022-07-23T14:47:51;24.30;1.00
37530;DHT22;23374;52.758;6.872;2022-07-23T14:50:11;24.40;99.90
37530;DHT22;23374;52.758;6.872;2022-07-23T14:52:32;24.50;57.10
37530;DHT22;23374;52.758;6.872;2022-07-23T14:54:52;24.60;99.90
37530;DHT22;23374;52.758;6.872;2022-07-23T14:57:12;24.60;99.90
37530;DHT22;23374;52.758;6.872;2022-07-23T14:59:33;24.60;23.20
37530;DHT22;23374;52.758;6.872;2022-07-23T15:01:53;24.50;39.60
37530;DHT22;23374;52.758;6.872;2022-07-23T15:04:14;24.50;99.80
37530;DHT22;23374;52.758;6.872;2022-07-23T15:06:34;24.50;99.90
37530;DHT22;23374;52.758;6.872;2022-07-23T15:08:54;24.40;98.60
37530;DHT22;23374;52.758;6.872;2022-07-23T15:11:14;24.30;76.90
37530;DHT22;23374;52.758;6.872;2022-07-23T15:13:35;24.30;1.00
37530;DHT22;23374;52.758;6.872;2022-07-23T15:15:56;24.30;37.10
37530;DHT22;23374;52.758;6.872;2022-07-23T15:18:16;24.40;14.90
37530;DHT22;23374;52.758;6.872;2022-07-23T15:20:36;24.50;29.30
37530;DHT22;23374;52.758;6.872;2022-07-23T15:22:57;24.60;51.10
37530;DHT22;23374;52.758;6.872;2022-07-23T15:25:18;24.60;5.80
37530;DHT22;23374;52.758;6.872;2022-07-23T15:27:38;24.70;1.00
37530;DHT22;23374;52.758;6.872;2022-07-23T15:29:58;24.60;1.00
37530;DHT22;23374;52.758;6.872;2022-07-23T15:32:19;24.70;1.00
37530;DHT22;23374;52.758;6.872;2022-07-23T15:34:39;24.60;1.00
37530;DHT22;23374;52.758;6.872;2022-07-23T15:37:02;24.60;1.00
37530;DHT22;23374;52.758;6.872;2022-07-23T15:39:24;24.70;1.00
37530;DHT22;23374;52.758;6.872;2022-07-23T15:41:45;24.70;1.00
37530;DHT22;23374;52.758;6.872;2022-07-23T15:44:06;24.70;1.00
37530;DHT22;23374;52.758;6.872;2022-07-23T15:46:26;24.80;1.00
37530;DHT22;23374;52.758;6.872;2022-07-23T15:48:47;24.80;1.00
37530;DHT22;23374;52.758;6.872;2022-07-23T15:51:08;24.80;1.00